Time;durP1;ratioP1;P1;durP2;ratioP2;P2;SDS_P1;SDS_P2;PMS_P1;PMS_P2;Temp;Humidity;BMP_temperature;BMP_pressure;BME280_temperature;BME280_humidity;BME280_pressure;Samples;Min_cycle;Max_cycle;Signal;HPM_P1;HPM_P2
2021/08/14 00:01:27;;;;;;;23.17;6.65;;;18.20;99.90;;;;;;5009874;28;20226;-87
2021/08/14 00:03:55;;;;;;;29.98;7.82;;;18.10;99.90;;;;;;5010271;28;20226;-87
2021/08/14 00:06:22;;;;;;;23.13;6.93;;;18.10;99.90;;;;;;5010976;28;20218;-87
2021/08/14 00:08:49;;;;;;;26.08;7.40;;;18.20;99.90;;;;;;5007899;28;20535;-86
2021/08/14 00:11:15;;;;;;;20.83;7.25;;;18.10;99.90;;;;;;5008488;28;20219;-88
2021/08/14 00:13:42;;;;;;;24.27;7.50;;;18.10;99.90;;;;;;5008623;28;20218;-86
2021/08/14 00:16:09;;;;;;;21.80;7.25;;;18.10;99.90;;;;;;5006568;28;20206;-79
2021/08/14 00:18:36;;;;;;;21.63;7.20;;;18.20;99.90;;;;;;5006529;28;20231;-80
2021/08/14 00:21:06;;;;;;;26.63;7.38;;;18.20;99.90;;;;;;5005072;28;20230;-82
2021/08/14 00:23:33;;;;;;;29.85;8.75;;;18.30;99.90;;;;;;4987695;28;20196;-84
2021/08/14 00:25:59;;;;;;;25.33;7.20;;;18.30;99.90;;;;;;4988257;28;20207;-80
2021/08/14 00:28:26;;;;;;;25.63;7.90;;;18.30;99.90;;;;;;5012234;28;20195;-85
2021/08/14 00:30:53;;;;;;;23.15;7.13;;;18.30;99.90;;;;;;5021626;28;20215;-86
2021/08/14 00:33:20;;;;;;;20.77;7.40;;;18.30;99.90;;;;;;5013905;28;20210;-86
2021/08/14 00:35:47;;;;;;;28.98;7.70;;;18.30;99.90;;;;;;5013343;28;20218;-83
2021/08/14 00:38:15;;;;;;;26.48;7.55;;;18.30;99.90;;;;;;5012537;28;20591;-85
2021/08/14 00:40:42;;;;;;;29.65;7.53;;;18.40;99.90;;;;;;5013079;28;20235;-85
2021/08/14 00:43:09;;;;;;;23.80;6.72;;;18.30;99.90;;;;;;5012973;28;20206;-80
2021/08/14 00:45:40;;;;;;;28.15;8.05;;;18.40;99.90;;;;;;5011905;28;20203;-81
2021/08/14 00:48:08;;;;;;;22.42;7.47;;;18.30;99.90;;;;;;5011143;28;20251;-86
2021/08/14 00:50:35;;;;;;;29.30;9.00;;;18.30;99.90;;;;;;5011839;28;20591;-81
2021/08/14 00:53:02;;;;;;;31.50;9.05;;;18.30;99.90;;;;;;5011777;28;20210;-88
2021/08/14 00:55:30;;;;;;;23.13;7.88;;;18.30;99.90;;;;;;5011757;28;20207;-87
2021/08/14 00:57:57;;;;;;;23.83;7.93;;;18.40;99.90;;;;;;5009272;28;20534;-86
2021/08/14 01:00:24;;;;;;;24.90;6.88;;;18.40;99.90;;;;;;5010628;28;20235;-89
2021/08/14 01:02:52;;;;;;;23.02;7.20;;;18.40;99.90;;;;;;5011810;28;20203;-84
2021/08/14 01:05:19;;;;;;;26.60;7.20;;;18.40;99.90;;;;;;5010090;28;20215;-85
2021/08/14 01:07:46;;;;;;;27.30;8.30;;;18.40;99.90;;;;;;5013256;28;20215;-86
2021/08/14 01:10:13;;;;;;;26.48;7.07;;;18.40;99.90;;;;;;5010205;28;20608;-82
2021/08/14 01:12:41;;;;;;;22.30;6.97;;;18.40;99.90;;;;;;5010624;28;20227;-79
2021/08/14 01:15:09;;;;;;;22.15;7.88;;;18.40;99.90;;;;;;5009810;28;20203;-80
2021/08/14 01:17:37;;;;;;;25.23;7.18;;;18.40;99.90;;;;;;5009821;28;20230;-80
2021/08/14 01:20:04;;;;;;;25.00;7.55;;;18.40;99.90;;;;;;5007876;28;20254;-79
2021/08/14 01:22:31;;;;;;;30.80;7.78;;;18.40;99.90;;;;;;5008539;28;20216;-82
2021/08/14 01:24:58;;;;;;;25.23;6.85;;;18.40;99.90;;;;;;5009396;28;20611;-81
2021/08/14 01:27:27;;;;;;;20.30;7.03;;;18.40;99.90;;;;;;4996262;28;20219;-79
2021/08/14 01:29:54;;;;;;;28.55;8.00;;;18.40;99.90;;;;;;4993541;28;20212;-81
2021/08/14 01:32:20;;;;;;;25.77;7.65;;;18.40;99.90;;;;;;5014018;28;20271;-80
2021/08/14 01:34:49;;;;;;;28.70;8.80;;;18.40;99.90;;;;;;5010959;28;20199;-80
2021/08/14 01:37:16;;;;;;;31.70;8.93;;;18.40;99.90;;;;;;5009646;28;20208;-81
2021/08/14 01:39:43;;;;;;;26.90;8.30;;;18.40;99.90;;;;;;5005967;28;20296;-80
2021/08/14 01:42:09;;;;;;;27.63;8.05;;;18.50;99.90;;;;;;4989188;28;20227;-86
2021/08/14 01:44:38;;;;;;;25.58;9.27;;;18.50;99.90;;;;;;4990567;28;20207;-83
2021/08/14 01:47:07;;;;;;;24.25;8.27;;;18.50;99.90;;;;;;4991073;28;20200;-80
2021/08/14 01:49:34;;;;;;;31.15;8.70;;;18.50;99.90;;;;;;4989845;28;20608;-84
2021/08/14 01:52:07;;;;;;;18.30;7.85;;;18.50;99.90;;;;;;4989134;28;20211;-83
2021/08/14 01:54:34;;;;;;;27.40;8.52;;;18.50;99.90;;;;;;4989946;28;20243;-85
2021/08/14 01:57:01;;;;;;;23.48;8.20;;;18.50;99.90;;;;;;4990663;28;20219;-80
2021/08/14 01:59:27;;;;;;;31.30;8.90;;;18.60;99.90;;;;;;4990050;28;20188;-80
2021/08/14 02:01:56;;;;;;;25.67;8.23;;;18.60;99.90;;;;;;4990704;28;20212;-81
2021/08/14 02:04:22;;;;;;;26.63;7.93;;;18.60;99.90;;;;;;4990820;28;20304;-85
2021/08/14 02:06:51;;;;;;;29.98;8.48;;;18.60;99.90;;;;;;4990341;28;20493;-80
2021/08/14 02:09:18;;;;;;;32.67;8.88;;;18.60;99.90;;;;;;4989895;28;20215;-81
2021/08/14 02:11:45;;;;;;;25.63;8.75;;;18.60;99.90;;;;;;5007674;28;20235;-82
2021/08/14 02:14:13;;;;;;;23.65;8.15;;;18.60;99.90;;;;;;5008577;28;20606;-82
2021/08/14 02:16:40;;;;;;;31.13;8.18;;;18.60;99.90;;;;;;5009220;28;20238;-81
2021/08/14 02:19:08;;;;;;;20.80;7.35;;;18.60;99.90;;;;;;5008266;28;20238;-81
2021/08/14 02:21:35;;;;;;;26.38;8.25;;;18.60;99.90;;;;;;5007503;28;20226;-81
2021/08/14 02:24:03;;;;;;;24.30;8.27;;;18.60;99.90;;;;;;5007156;28;20203;-81
2021/08/14 02:26:30;;;;;;;27.73;8.27;;;18.60;99.90;;;;;;4989585;28;20204;-80
2021/08/14 02:28:57;;;;;;;28.67;8.52;;;18.50;99.90;;;;;;4988126;28;20192;-79
2021/08/14 02:31:24;;;;;;;34.78;11.38;;;18.50;99.90;;;;;;4989795;28;20207;-82
2021/08/14 02:33:52;;;;;;;26.88;8.25;;;18.50;99.90;;;;;;4995434;28;20389;-81
2021/08/14 02:36:20;;;;;;;24.80;8.95;;;18.50;99.90;;;;;;5008815;28;20215;-81
2021/08/14 02:38:47;;;;;;;26.13;8.43;;;18.60;99.90;;;;;;5008427;28;20203;-89
2021/08/14 02:41:14;;;;;;;29.58;8.50;;;18.60;99.90;;;;;;5009530;28;20227;-82
2021/08/14 02:43:41;;;;;;;28.42;8.88;;;18.50;99.90;;;;;;5008527;28;20196;-80
2021/08/14 02:46:08;;;;;;;22.55;8.05;;;18.50;99.90;;;;;;5009459;28;20943;-81
2021/08/14 02:48:34;;;;;;;28.17;8.68;;;18.50;99.90;;;;;;5002743;28;20274;-89
2021/08/14 02:51:01;;;;;;;34.78;8.77;;;18.50;99.90;;;;;;4988467;28;20207;-83
2021/08/14 02:53:29;;;;;;;28.02;8.10;;;18.50;99.90;;;;;;4989565;28;20199;-86
2021/08/14 02:55:56;;;;;;;25.10;7.97;;;18.50;99.90;;;;;;4990720;28;20612;-86
2021/08/14 02:58:23;;;;;;;29.85;9.93;;;18.50;99.90;;;;;;4994390;28;20207;-87
2021/08/14 03:00:50;;;;;;;23.48;7.57;;;18.50;99.90;;;;;;5008864;28;20234;-86
2021/08/14 03:03:17;;;;;;;23.35;8.10;;;18.50;99.90;;;;;;5010832;28;20497;-81
2021/08/14 03:05:44;;;;;;;25.85;8.68;;;18.50;99.90;;;;;;5011719;28;20211;-80
2021/08/14 03:08:11;;;;;;;25.58;7.82;;;18.40;99.90;;;;;;5010350;28;20214;-84
2021/08/14 03:10:40;;;;;;;24.00;8.18;;;18.40;99.90;;;;;;5011259;28;20229;-87
2021/08/14 03:13:07;;;;;;;21.27;8.27;;;18.40;99.90;;;;;;5010561;28;20196;-82
2021/08/14 03:15:34;;;;;;;26.40;7.45;;;18.40;99.90;;;;;;5008988;28;20510;-81
2021/08/14 03:18:01;;;;;;;24.30;8.95;;;18.40;99.90;;;;;;5008988;28;20237;-81
2021/08/14 03:20:28;;;;;;;23.85;7.63;;;18.40;99.90;;;;;;5009462;28;20615;-87
2021/08/14 03:22:54;;;;;;;37.50;9.65;;;18.30;99.90;;;;;;5008498;28;20207;-80
2021/08/14 03:25:21;;;;;;;26.63;8.40;;;18.30;99.90;;;;;;5005620;28;20302;-80
2021/08/14 03:27:49;;;;;;;30.48;9.63;;;18.30;99.90;;;;;;4989453;28;20211;-88
2021/08/14 03:30:17;;;;;;;29.38;9.25;;;18.30;99.90;;;;;;4990940;28;20207;-87
2021/08/14 03:32:43;;;;;;;26.67;9.98;;;18.30;99.90;;;;;;4990888;28;20259;-85
2021/08/14 03:35:11;;;;;;;33.35;10.80;;;18.20;99.90;;;;;;5008239;28;20697;-79
2021/08/14 03:37:38;;;;;;;29.45;9.15;;;18.20;99.90;;;;;;5009544;28;20261;-88
2021/08/14 03:40:07;;;;;;;26.77;8.52;;;18.20;99.90;;;;;;4992541;28;20208;-88
2021/08/14 03:42:34;;;;;;;36.28;10.98;;;18.10;99.90;;;;;;4992143;28;20235;-81
2021/08/14 03:45:02;;;;;;;30.65;9.65;;;18.10;99.90;;;;;;5008234;28;20615;-80
2021/08/14 03:47:29;;;;;;;24.88;9.57;;;18.10;99.90;;;;;;5007817;28;20219;-80
2021/08/14 03:49:56;;;;;;;21.83;9.00;;;18.10;99.90;;;;;;5007795;28;20203;-89
2021/08/14 03:52:23;;;;;;;29.98;10.13;;;18.00;99.90;;;;;;5008296;28;20203;-81
2021/08/14 03:54:50;;;;;;;28.25;9.60;;;18.00;99.90;;;;;;5008901;28;20199;-85
2021/08/14 03:57:17;;;;;;;26.02;9.63;;;18.00;99.90;;;;;;5008575;28;20225;-82
2021/08/14 03:59:44;;;;;;;24.83;10.15;;;18.00;99.90;;;;;;5009716;28;20214;-89
2021/08/14 04:02:12;;;;;;;28.13;9.43;;;18.00;99.90;;;;;;5009264;28;20230;-86
2021/08/14 04:04:39;;;;;;;20.88;7.78;;;17.90;99.90;;;;;;5006684;28;20211;-82
2021/08/14 04:07:05;;;;;;;22.00;6.88;;;17.90;99.90;;;;;;5006105;28;20211;-84
2021/08/14 04:09:32;;;;;;;26.02;7.47;;;17.90;99.90;;;;;;5008157;28;20509;-82
2021/08/14 04:11:59;;;;;;;19.63;6.68;;;17.80;99.90;;;;;;5008652;28;20235;-81
2021/08/14 04:14:26;;;;;;;22.10;7.35;;;17.80;99.90;;;;;;5007618;28;20211;-80
2021/08/14 04:16:52;;;;;;;20.25;6.00;;;17.80;99.90;;;;;;5007422;28;20207;-82
2021/08/14 04:19:21;;;;;;;20.10;6.68;;;17.80;99.90;;;;;;5007033;28;20273;-88
2021/08/14 04:21:47;;;;;;;20.88;6.72;;;17.80;99.90;;;;;;5008801;28;20223;-81
2021/08/14 04:24:15;;;;;;;26.52;6.80;;;17.80;99.90;;;;;;5017950;28;20210;-82
2021/08/14 04:26:42;;;;;;;16.95;6.10;;;17.80;99.90;;;;;;4994256;28;20196;-80
2021/08/14 04:29:09;;;;;;;17.15;6.20;;;17.70;99.90;;;;;;4989144;28;20204;-82
2021/08/14 04:31:36;;;;;;;21.00;7.53;;;17.70;99.90;;;;;;4990802;28;20556;-80
2021/08/14 04:34:03;;;;;;;24.95;7.72;;;17.70;99.90;;;;;;5007679;28;20203;-83
2021/08/14 04:36:31;;;;;;;24.27;6.55;;;17.70;99.90;;;;;;5006558;28;20195;-88
2021/08/14 04:38:58;;;;;;;14.63;5.72;;;17.70;99.90;;;;;;5006301;28;20544;-81
2021/08/14 04:41:25;;;;;;;11.80;5.70;;;17.60;99.90;;;;;;5006625;28;20230;-87
2021/08/14 04:43:52;;;;;;;14.38;5.53;;;17.60;99.90;;;;;;5007334;28;20206;-85
2021/08/14 04:46:19;;;;;;;22.80;6.75;;;17.60;99.90;;;;;;5008431;28;20206;-84
2021/08/14 04:48:45;;;;;;;16.80;6.60;;;17.60;99.90;;;;;;5009796;28;20206;-83
2021/08/14 04:51:12;;;;;;;18.52;6.78;;;17.70;99.90;;;;;;5009326;28;20626;-85
2021/08/14 04:53:40;;;;;;;17.70;7.05;;;17.70;99.90;;;;;;5006211;28;20204;-87
2021/08/14 04:56:08;;;;;;;21.33;6.55;;;17.80;99.90;;;;;;4989448;28;20211;-83
2021/08/14 04:58:35;;;;;;;23.25;6.63;;;17.80;99.90;;;;;;4989363;28;20208;-86
2021/08/14 05:01:01;;;;;;;21.23;6.32;;;17.90;99.90;;;;;;4990537;28;20211;-85
2021/08/14 05:03:29;;;;;;;22.75;7.10;;;17.90;99.90;;;;;;4989995;28;20200;-85
2021/08/14 05:05:56;;;;;;;23.52;7.53;;;18.00;99.90;;;;;;4992873;28;20211;-82
2021/08/14 05:08:23;;;;;;;19.95;6.40;;;18.10;99.90;;;;;;5009516;28;20207;-83
2021/08/14 05:10:51;;;;;;;25.77;7.30;;;18.10;99.90;;;;;;5010715;28;20234;-84
2021/08/14 05:13:18;;;;;;;15.07;6.57;;;18.10;99.90;;;;;;5011709;28;20585;-80
2021/08/14 05:15:45;;;;;;;25.23;7.55;;;18.10;99.90;;;;;;5013082;28;20215;-80
2021/08/14 05:18:11;;;;;;;16.63;6.93;;;18.20;99.90;;;;;;5013133;28;20246;-80
2021/08/14 05:20:38;;;;;;;19.13;6.45;;;18.20;99.90;;;;;;5013719;28;20200;-86
2021/08/14 05:30:51;;;;;;;23.35;7.60;;;18.20;99.90;;;;;;4925793;28;20211;-85
2021/08/14 05:33:21;;;;;;;19.38;6.30;;;18.30;99.90;;;;;;4996494;28;20202;-79
2021/08/14 05:35:48;;;;;;;20.05;7.20;;;18.30;99.90;;;;;;4987790;28;20207;-78
2021/08/14 05:38:16;;;;;;;21.90;5.95;;;18.30;99.90;;;;;;4990658;28;20749;-79
2021/08/14 05:40:42;;;;;;;20.58;6.82;;;18.30;99.90;;;;;;5002453;28;20210;-82
2021/08/14 05:43:09;;;;;;;20.23;6.55;;;18.30;99.90;;;;;;5010374;28;20242;-82
2021/08/14 05:45:36;;;;;;;20.92;7.40;;;18.40;99.90;;;;;;5008509;28;20204;-82
2021/08/14 05:48:04;;;;;;;20.90;6.80;;;18.40;99.90;;;;;;5012580;28;20198;-85
2021/08/14 05:50:33;;;;;;;20.90;7.50;;;18.50;99.90;;;;;;5007681;28;20211;-85
2021/08/14 05:52:59;;;;;;;19.10;7.63;;;18.50;99.90;;;;;;4991006;28;20668;-83
2021/08/14 05:55:26;;;;;;;15.18;6.53;;;18.60;99.90;;;;;;4992571;28;20204;-82
2021/08/14 05:57:54;;;;;;;22.90;6.80;;;18.60;99.90;;;;;;4992080;28;20832;-81
2021/08/14 06:00:21;;;;;;;26.35;6.70;;;18.70;99.90;;;;;;5009615;28;20215;-84
2021/08/14 06:02:47;;;;;;;27.17;7.38;;;18.80;99.90;;;;;;5009947;28;20229;-79
2021/08/14 06:05:14;;;;;;;21.92;7.22;;;18.90;99.90;;;;;;4992542;28;20231;-79
2021/08/14 06:07:42;;;;;;;34.63;7.78;;;18.90;99.90;;;;;;4993889;28;20215;-87
2021/08/14 06:10:10;;;;;;;20.02;7.15;;;19.00;99.90;;;;;;5012362;28;20598;-89
2021/08/14 06:15:14;;;;;;;21.23;6.93;;;19.10;99.90;;;;;;5463540;23;20233;-88
2021/08/14 06:17:41;;;;;;;29.90;7.88;;;19.20;99.90;;;;;;5031073;28;20210;-87
2021/08/14 06:20:11;;;;;;;22.10;7.45;;;19.20;99.90;;;;;;5022287;28;20207;-88
2021/08/14 06:22:39;;;;;;;29.02;6.97;;;19.20;99.90;;;;;;5015050;28;20321;-85
2021/08/14 06:25:09;;;;;;;23.48;7.53;;;19.20;99.90;;;;;;5013543;28;20223;-85
2021/08/14 06:27:36;;;;;;;25.30;6.97;;;19.20;99.90;;;;;;5013374;28;20196;-88
2021/08/14 06:30:04;;;;;;;38.75;8.63;;;19.20;99.90;;;;;;5013946;28;20293;-86
2021/08/14 06:32:31;;;;;;;23.75;7.47;;;19.30;99.90;;;;;;5014579;28;20206;-83
2021/08/14 06:34:58;;;;;;;18.33;6.53;;;19.30;99.90;;;;;;5032219;28;20206;-83
2021/08/14 06:37:25;;;;;;;19.85;6.90;;;19.40;99.90;;;;;;5032346;28;20206;-81
2021/08/14 06:39:52;;;;;;;21.90;7.03;;;19.40;99.90;;;;;;5033392;28;20408;-88
2021/08/14 06:42:20;;;;;;;28.40;8.70;;;19.40;99.90;;;;;;5033030;28;20227;-84
2021/08/14 06:44:47;;;;;;;21.77;7.47;;;19.40;99.90;;;;;;5036963;28;20218;-80
2021/08/14 06:47:13;;;;;;;27.25;8.00;;;19.40;99.90;;;;;;5023816;28;20203;-82
2021/08/14 06:49:40;;;;;;;22.83;7.30;;;19.30;99.90;;;;;;5014535;28;20214;-84
2021/08/14 06:52:08;;;;;;;20.58;7.65;;;19.30;99.90;;;;;;4996718;28;20222;-83
2021/08/14 06:54:35;;;;;;;18.42;7.88;;;19.40;99.90;;;;;;5017017;28;20206;-83
2021/08/14 06:57:02;;;;;;;23.77;7.53;;;19.40;99.90;;;;;;5029145;28;20634;-81
2021/08/14 06:59:30;;;;;;;26.38;8.48;;;19.40;99.90;;;;;;5027568;28;20202;-82
2021/08/14 07:01:57;;;;;;;26.60;8.68;;;19.50;99.90;;;;;;5029247;28;20226;-86
2021/08/14 07:04:24;;;;;;;22.30;7.57;;;19.50;99.90;;;;;;5031115;28;20207;-82
2021/08/14 07:06:51;;;;;;;22.65;7.10;;;19.60;99.90;;;;;;5029983;28;20574;-82
2021/08/14 07:09:18;;;;;;;20.17;7.03;;;19.60;99.90;;;;;;5030167;28;20201;-83
2021/08/14 07:11:45;;;;;;;24.08;7.38;;;19.70;99.90;;;;;;5029995;28;20343;-84
2021/08/14 07:14:12;;;;;;;21.92;7.15;;;19.60;99.90;;;;;;5024549;28;20239;-81
2021/08/14 07:16:41;;;;;;;16.27;6.55;;;19.60;99.90;;;;;;5008352;28;20237;-81
2021/08/14 07:19:07;;;;;;;24.10;8.23;;;19.70;99.90;;;;;;5008377;28;20671;-82
2021/08/14 07:21:34;;;;;;;24.98;8.48;;;19.70;99.90;;;;;;5008361;28;20214;-78
2021/08/14 07:24:35;;;;;;;18.13;7.63;;;19.70;99.90;;;;;;5008056;28;20238;-85
2021/08/14 07:27:02;;;;;;;24.65;8.23;;;19.70;99.90;;;;;;4995235;28;20209;-83
2021/08/14 07:29:29;;;;;;;20.00;6.13;;;19.80;99.90;;;;;;5029626;28;20206;-88
2021/08/14 07:31:58;;;;;;;23.77;7.65;;;19.80;99.90;;;;;;5028822;28;20198;-80
2021/08/14 07:34:24;;;;;;;21.08;7.00;;;19.80;99.90;;;;;;5019846;28;20207;-81
2021/08/14 07:36:51;;;;;;;21.58;6.63;;;19.80;99.90;;;;;;5008483;28;20199;-82
2021/08/14 07:39:18;;;;;;;20.48;6.50;;;19.90;99.90;;;;;;5008594;28;20203;-84
2021/08/14 07:41:45;;;;;;;17.83;6.47;;;20.00;99.90;;;;;;5008178;28;20195;-80
2021/08/14 07:44:12;;;;;;;16.30;5.88;;;20.10;99.90;;;;;;4997562;28;20208;-83
2021/08/14 07:46:39;;;;;;;17.13;6.68;;;20.20;99.90;;;;;;4987858;28;20212;-83
2021/08/14 07:49:07;;;;;;;19.65;6.53;;;20.50;99.90;;;;;;5005446;28;20210;-85
2021/08/14 07:51:33;;;;;;;17.92;5.97;;;20.60;99.90;;;;;;5008780;28;20299;-89
2021/08/14 07:54:00;;;;;;;19.58;6.65;;;20.60;99.90;;;;;;5007368;28;20199;-81
2021/08/14 07:56:27;;;;;;;19.58;6.40;;;20.60;99.90;;;;;;5002139;28;20204;-87
2021/08/14 07:58:54;;;;;;;17.25;6.07;;;20.40;99.90;;;;;;4988798;28;20207;-83
2021/08/14 08:01:21;;;;;;;15.23;5.90;;;20.40;99.90;;;;;;4988462;28;20204;-83
2021/08/14 08:03:47;;;;;;;20.58;6.38;;;20.40;99.90;;;;;;4988806;28;20554;-79
2021/08/14 08:06:15;;;;;;;17.52;6.25;;;20.40;99.90;;;;;;5008333;28;20210;-88
2021/08/14 08:08:42;;;;;;;18.60;6.30;;;20.40;99.90;;;;;;5007819;28;20538;-80
2021/08/14 08:11:09;;;;;;;20.42;6.30;;;20.40;99.90;;;;;;5005815;28;20235;-79
2021/08/14 08:13:36;;;;;;;18.88;6.68;;;20.50;99.90;;;;;;5006883;28;20195;-81
2021/08/14 08:16:03;;;;;;;20.63;6.72;;;20.50;99.90;;;;;;4953693;28;1562633;-85
2021/08/14 08:18:29;;;;;;;17.23;6.13;;;20.60;99.90;;;;;;5018824;28;20203;-83
2021/08/14 08:20:56;;;;;;;24.65;6.80;;;20.70;99.90;;;;;;5009277;28;20892;-83
2021/08/14 08:23:24;;;;;;;21.85;6.38;;;20.90;99.90;;;;;;4998635;28;20246;-82
2021/08/14 08:25:51;;;;;;;15.38;6.47;;;21.10;99.90;;;;;;4992886;28;20207;-88
2021/08/14 08:28:21;;;;;;;16.52;6.43;;;21.20;99.90;;;;;;5010484;28;20195;-85
2021/08/14 08:30:48;;;;;;;14.30;5.53;;;21.50;99.90;;;;;;5007939;28;20251;-84
2021/08/14 08:33:15;;;;;;;15.63;5.45;;;21.70;99.90;;;;;;5009343;28;20199;-83
2021/08/14 08:35:41;;;;;;;17.67;6.95;;;21.80;99.90;;;;;;5009920;28;20204;-82
2021/08/14 08:38:08;;;;;;;17.48;6.28;;;21.90;99.90;;;;;;5009530;28;20207;-83
2021/08/14 08:40:38;;;;;;;15.40;5.88;;;22.20;99.90;;;;;;5009311;28;20191;-88
2021/08/14 08:43:05;;;;;;;13.57;5.82;;;22.50;99.90;;;;;;5008957;28;20522;-83
2021/08/14 08:45:33;;;;;;;15.18;6.13;;;22.90;99.90;;;;;;5008998;28;20207;-84
2021/08/14 08:48:00;;;;;;;16.27;6.55;;;23.20;99.90;;;;;;5009954;28;20491;-86
2021/08/14 08:50:29;;;;;;;15.68;6.20;;;23.60;99.90;;;;;;5013744;28;20207;-85
2021/08/14 08:52:56;;;;;;;22.63;6.28;;;24.00;99.90;;;;;;5012777;28;20265;-84
2021/08/14 08:55:24;;;;;;;21.55;6.72;;;24.00;99.90;;;;;;5012754;28;20388;-88
2021/08/14 08:57:54;;;;;;;18.58;6.90;;;23.90;99.90;;;;;;5007688;23;20243;-88
2021/08/14 09:00:20;;;;;;;22.65;7.10;;;23.90;99.90;;;;;;4994405;28;20226;-86
2021/08/14 09:03:06;;;;;;;18.25;6.55;;;23.90;99.90;;;;;;4993495;28;20224;-83
2021/08/14 09:05:33;;;;;;;20.30;7.65;;;23.90;99.90;;;;;;4994256;28;20938;-84
2021/08/14 09:08:10;;;;;;;18.50;8.10;;;23.70;99.90;;;;;;4993313;28;20204;-84
2021/08/14 09:10:37;;;;;;;14.57;7.32;;;23.80;99.90;;;;;;4992877;28;20379;-85
2021/08/14 09:13:13;;;;;;;15.05;7.00;;;23.70;99.90;;;;;;4991971;28;20203;-81
2021/08/14 09:15:40;;;;;;;13.20;5.72;;;23.80;99.90;;;;;;4991017;28;21006;-82
2021/08/14 09:18:09;;;;;;;19.45;5.38;;;23.90;99.90;;;;;;4990965;28;20211;-84
2021/08/14 09:20:50;;;;;;;17.05;5.75;;;24.10;99.90;;;;;;4991871;28;20223;-82
2021/08/14 09:23:17;;;;;;;15.65;5.47;;;24.30;99.90;;;;;;4991716;28;20242;-84
2021/08/14 09:25:45;;;;;;;14.73;5.78;;;24.70;99.90;;;;;;4990929;28;20550;-84
2021/08/14 09:28:14;;;;;;;10.70;4.88;;;24.70;99.90;;;;;;4991117;28;20223;-82
2021/08/14 09:30:47;;;;;;;24.08;6.43;;;24.50;99.90;;;;;;4990129;28;20207;-82
2021/08/14 09:33:16;;;;;;;20.13;7.10;;;24.30;99.90;;;;;;4990945;28;20204;-82
2021/08/14 09:35:44;;;;;;;14.77;5.47;;;23.90;99.90;;;;;;4990954;28;20211;-82
2021/08/14 09:38:13;;;;;;;16.00;5.82;;;23.60;99.90;;;;;;4990189;28;20215;-82
2021/08/14 09:40:42;;;;;;;13.50;6.30;;;23.40;99.90;;;;;;4990196;28;20223;-81
2021/08/14 09:43:09;;;;;;;15.85;6.20;;;23.30;99.90;;;;;;4996911;28;20235;-81
2021/08/14 09:45:38;;;;;;;19.60;6.50;;;23.30;99.90;;;;;;4999960;28;20204;-82
2021/08/14 09:48:22;;;;;;;14.10;6.03;;;23.30;99.90;;;;;;4990763;28;20275;-81
2021/08/14 09:50:49;;;;;;;17.42;6.75;;;23.30;99.90;;;;;;4988865;28;20211;-81
2021/08/14 09:53:18;;;;;;;22.30;6.13;;;23.30;99.90;;;;;;4989538;28;20216;-81
2021/08/14 09:55:47;;;;;;;15.63;6.07;;;23.30;99.90;;;;;;4988988;28;20513;-83
2021/08/14 09:58:17;;;;;;;17.55;6.03;;;23.40;99.90;;;;;;4970254;28;20240;-81
2021/08/14 10:00:46;;;;;;;13.60;5.95;;;23.20;99.90;;;;;;4988138;28;20301;-81
2021/08/14 10:03:16;;;;;;;10.80;4.53;;;23.10;99.90;;;;;;4978953;28;20333;-80
2021/08/14 10:05:44;;;;;;;17.17;6.32;;;23.10;99.90;;;;;;4970959;28;20283;-82
2021/08/14 10:08:11;;;;;;;20.33;6.38;;;23.30;99.90;;;;;;4970409;28;20223;-80
2021/08/14 10:10:38;;;;;;;21.88;6.72;;;23.60;99.90;;;;;;4969378;28;20230;-81
2021/08/14 10:13:06;;;;;;;24.48;7.65;;;23.70;99.90;;;;;;4968971;28;20323;-81
2021/08/14 10:15:33;;;;;;;21.73;7.38;;;23.50;99.90;;;;;;4980460;28;20208;-83
2021/08/14 10:18:03;;;;;;;11.50;5.13;;;23.50;99.90;;;;;;4988656;28;20261;-79
2021/08/14 10:20:30;;;;;;;13.40;5.10;;;23.60;99.90;;;;;;4988812;28;20218;-82
2021/08/14 10:23:00;;;;;;;12.35;5.70;;;23.40;99.90;;;;;;4988216;28;20227;-82
2021/08/14 10:25:28;;;;;;;15.98;5.63;;;23.20;99.90;;;;;;4971100;28;20205;-81
2021/08/14 10:27:58;;;;;;;17.10;6.75;;;23.30;99.90;;;;;;4969670;28;20208;-83
2021/08/14 10:30:40;;;;;;;18.50;5.88;;;23.60;99.90;;;;;;4971897;28;20401;-82
2021/08/14 10:33:08;;;;;;;13.90;5.38;;;23.80;99.90;;;;;;4970494;28;20276;-84
2021/08/14 10:35:38;;;;;;;16.80;5.47;;;24.20;99.90;;;;;;4982942;28;20216;-85
2021/08/14 10:38:05;;;;;;;11.88;5.63;;;24.50;99.90;;;;;;4988828;28;20208;-82
2021/08/14 10:40:58;;;;;;;16.25;6.22;;;24.70;99.90;;;;;;4989487;28;20593;-82
2021/08/14 10:44:02;;;;;;;14.15;5.43;;;24.80;99.90;;;;;;4989423;28;20263;-82
2021/08/14 10:46:43;;;;;;;11.10;4.30;;;24.80;99.90;;;;;;4987833;28;20200;-81
2021/08/14 10:49:13;;;;;;;14.82;5.35;;;25.30;99.90;;;;;;4988307;28;20208;-80
2021/08/14 10:52:16;;;;;;;13.20;4.78;;;25.60;99.90;;;;;;4987376;28;20212;-82
2021/08/14 10:55:07;;;;;;;15.65;5.18;;;25.80;99.90;;;;;;4988370;28;20219;-84
2021/08/14 10:57:45;;;;;;;13.40;4.43;;;25.50;99.90;;;;;;4988021;28;20235;-82
2021/08/14 11:00:19;;;;;;;13.50;5.07;;;25.60;99.90;;;;;;4969873;28;20216;-80
2021/08/14 11:03:08;;;;;;;13.07;5.05;;;25.50;99.90;;;;;;4969059;28;20199;-81
2021/08/14 11:05:37;;;;;;;11.48;4.95;;;25.70;99.90;;;;;;4964969;28;20220;-82
2021/08/14 11:08:20;;;;;;;16.48;5.68;;;26.00;99.90;;;;;;4986832;28;20248;-81
2021/08/14 11:10:47;;;;;;;16.42;5.72;;;26.10;99.90;;;;;;4986474;28;20228;-83
2021/08/14 11:13:40;;;;;;;12.82;4.55;;;26.20;99.90;;;;;;4987984;28;20196;-79
2021/08/14 11:16:06;;;;;;;11.50;4.53;;;26.30;99.90;;;;;;4988322;28;20200;-84
2021/08/14 11:18:52;;;;;;;10.15;4.57;;;26.40;99.90;;;;;;4988838;28;20196;-82
2021/08/14 11:21:40;;;;;;;14.52;5.38;;;26.70;99.90;;;;;;4989848;28;20596;-85
2021/08/14 11:24:07;;;;;;;12.75;5.10;;;26.80;99.90;;;;;;4986959;28;20239;-82
2021/08/14 11:26:35;;;;;;;10.60;4.70;;;26.40;99.90;;;;;;4986893;28;20593;-80
2021/08/14 11:29:03;;;;;;;13.02;5.30;;;26.10;99.90;;;;;;4987047;28;20203;-82
2021/08/14 11:31:30;;;;;;;11.68;4.85;;;25.50;99.90;;;;;;4988264;28;20214;-87
2021/08/14 11:34:10;;;;;;;16.42;5.85;;;25.00;99.90;;;;;;4979173;28;20245;-84
2021/08/14 11:36:39;;;;;;;14.07;5.60;;;24.40;99.90;;;;;;4970363;28;20208;-81
2021/08/14 11:39:06;;;;;;;12.57;5.35;;;24.30;99.90;;;;;;4976085;28;20235;-82
2021/08/14 11:41:33;;;;;;;16.02;5.43;;;24.30;99.90;;;;;;4987719;28;20214;-82
2021/08/14 11:44:04;;;;;;;15.30;5.68;;;24.10;99.90;;;;;;4971890;28;20232;-85
2021/08/14 11:46:32;;;;;;;13.07;5.53;;;24.40;99.90;;;;;;4973430;28;20510;-83
2021/08/14 11:49:01;;;;;;;10.02;5.07;;;24.40;99.90;;;;;;4987612;28;20195;-82
2021/08/14 11:51:29;;;;;;;10.25;4.47;;;24.40;99.90;;;;;;4988814;28;20243;-85
2021/08/14 11:54:09;;;;;;;15.25;5.70;;;24.20;99.90;;;;;;4990776;28;20635;-83
2021/08/14 11:56:37;;;;;;;14.65;5.85;;;24.00;99.90;;;;;;4996259;28;20188;-84
2021/08/14 11:59:04;;;;;;;16.38;5.70;;;24.00;99.90;;;;;;4998586;28;20606;-83
2021/08/14 12:01:31;;;;;;;9.45;4.85;;;23.80;99.90;;;;;;4994214;28;20215;-82
2021/08/14 12:03:59;;;;;;;14.00;5.22;;;23.70;99.90;;;;;;4993698;28;20227;-86
2021/08/14 12:06:29;;;;;;;12.35;5.85;;;23.80;99.90;;;;;;4992425;28;20212;-88
2021/08/14 12:08:58;;;;;;;14.85;5.53;;;24.00;99.90;;;;;;4990861;28;20509;-84
2021/08/14 12:11:28;;;;;;;13.15;5.53;;;24.10;99.90;;;;;;4990136;28;20224;-84
2021/08/14 12:14:13;;;;;;;20.00;6.00;;;24.10;99.90;;;;;;4989989;28;20567;-79
2021/08/14 12:16:41;;;;;;;11.52;5.22;;;24.20;99.90;;;;;;4971645;28;20208;-84
2021/08/14 12:19:14;;;;;;;18.75;6.63;;;24.40;99.90;;;;;;4972315;28;20608;-86
2021/08/14 12:21:41;;;;;;;12.50;5.00;;;24.80;99.90;;;;;;4977177;28;20331;-86
2021/08/14 12:24:09;;;;;;;12.65;4.72;;;24.80;99.90;;;;;;4990408;28;20227;-84
2021/08/14 12:26:37;;;;;;;11.40;5.25;;;24.70;99.90;;;;;;4990183;28;20651;-87
2021/08/14 12:29:06;;;;;;;8.27;4.22;;;24.40;99.90;;;;;;4991391;28;20200;-85
2021/08/14 12:31:45;;;;;;;14.00;5.32;;;24.10;99.90;;;;;;4990238;28;20605;-85
2021/08/14 12:34:22;;;;;;;10.45;5.28;;;23.80;99.90;;;;;;4990332;28;20187;-80
2021/08/14 12:37:00;;;;;;;11.00;5.07;;;23.70;99.90;;;;;;4987515;28;20303;-82
2021/08/14 12:39:51;;;;;;;13.75;4.68;;;23.70;99.90;;;;;;4988156;28;20531;-84
2021/08/14 12:42:21;;;;;;;11.27;4.53;;;23.50;99.90;;;;;;4990162;28;20219;-85
2021/08/14 12:44:49;;;;;;;14.27;5.60;;;23.70;99.90;;;;;;5019527;23;20250;-86
2021/08/14 12:47:25;;;;;;;10.90;4.53;;;23.90;99.90;;;;;;5029162;28;20218;-84
2021/08/14 12:50:17;;;;;;;12.48;4.72;;;24.00;99.90;;;;;;5028028;28;20202;-85
2021/08/14 12:53:00;;;;;;;16.52;5.47;;;23.70;99.90;;;;;;5027988;28;20206;-81
2021/08/14 12:55:28;;;;;;;13.43;4.68;;;23.80;99.90;;;;;;5026315;28;20194;-82